ADDS METAR Data INFO
IDs: Format: Raw Decoded Include TAF

Data at: 0352 UTC 19 Jul 2018

KSPG 190253Z AUTO 25006KT 10SM CLR 29/24 A2997 RMK AO2 SLP148 T02940239 53006
KSPG 190153Z AUTO 26007KT 10SM CLR 29/24 A2996 RMK AO2 SLP146 T02940239
KSPG 190053Z AUTO 26005KT 10SM FEW027 SCT065 29/24 A2996 RMK AO2 LTG DSNT N SLP145 T02940244
KSPG 190044Z 26007KT 10SM SCT027 BKN070 29/24 A2996 RMK AO2 LTG DSNT N T02940244
KSPG 190029Z 25005KT 10SM BKN028 BKN043 29/24 A2996 RMK AO2 LTG DSNT N T02940244
KSPG 182353Z 24004KT 10SM CLR 29/24 A2995 RMK AO2 SLP143 60001 T02940244 10311 20272 56012
KSPG 182253Z 26005KT 10SM FEW027 FEW065 29/23 A2996 RMK AO2 RAB36E45 SLP145 P0000 T02890228
KSPG 182153Z 26005KT 10SM CLR 29/25 A2997 RMK AO2 LTG DSNT N SLP148 T02940250
KSPG 182119Z 27004KT 10SM CLR 29/25 A2998 RMK AO2 T02890250
KSPG 182053Z 25003KT 10SM VCTS CLR 28/25 A2999 RMK AO2 LTG DSNT NE RAB15E35 TSB07E43 SLP155 P0001 60001 T02830250 58006
KSPG 182047Z 25004KT 10SM FEW065 FEW100 28/25 A2999 RMK AO2 LTG DSNT NE RAB15E35 TSB07E43 P0001
KSPG 182028Z 22004KT 6SM -TSRA SCT031 SCT048 BKN065 28/23 A2999 RMK AO2 LTG DSNT N AND NE AND S RAB15 TSB07 P0001 T02830233
KSPG 182013Z 23011G22KT 10SM TS BKN027 BKN032 BKN039 28/23 A3000 RMK AO2 LTG DSNT NE AND S TSB07 T02830233
KSPG 181953Z 22007KT 10SM VCTS BKN027 BKN031 30/25 A3000 RMK AO2 LTG DSNT N-SE SLP157 T03000250
KSPG 181950Z 22007KT 10SM VCTS BKN027 BKN032 BKN050 30/25 A3000 RMK AO2 LTG DSNT N-SE
KSPG 181912Z 26011KT 10SM FEW033 SCT043 31/23 A3000 RMK AO2 LTG DSNT ALQDS T03060233
KSPG 181853Z 26008KT 10SM VCTS FEW028 FEW036 31/24 A3001 RMK AO2 LTG DSNT NE AND SE RAB16E31 SLP160 P0000 T03060244
KSPG 181829Z 24011KT 10SM -RA FEW028 SCT037 BKN060 30/25 A3001 RMK AO2 LTG DSNT NE AND S RAB16 P0000 T03000250
KSPG 181803Z 26008KT 10SM VCTS FEW026 31/25 A3001 RMK AO2 LTG DSNT NE AND E AND SW T03060250
KSPG 181753Z 27012G16KT 10SM FEW026 31/24 A3001 RMK AO2 LTG DSNT NE AND E AND SW SLP161 60018 T03060244 10311 20261 58005
KSPG 181653Z 27011G19KT 10SM FEW026 31/24 A3002 RMK AO2 LTG DSNT NE AND SE SLP165 T03060244
KSPG 181553Z 28012KT 10SM FEW030 31/24 A3002 RMK AO2 LTG DSNT N-SE SLP165 T03060244
KSPG 181453Z 26010KT 10SM CLR 31/24 A3003 RMK AO2 LTG DSNT E AND SE SLP167 60018 T03060244 50000
KSPG 181353Z 23003KT 10SM FEW044 FEW055 27/24 A3003 RMK AO2 RAB11E41 TSE1254 SLP169 P0001 T02720244
KSPG 181318Z 23011KT 10SM -RA SCT026 SCT031 BKN080 28/24 A3004 RMK AO2 RAB11 TSE1254 P0001 T02830244
KSPG 181300Z 00000KT 10SM VCTS FEW028 FEW034 FEW070 28/24 A3004 RMK AO2 LTG DSNT N AND SW TSE1254 T02780244
KSPG 181253Z VRB03KT 10SM TS FEW018 SCT045 SCT070 28/25 A3004 RMK AO2 LTG DSNT N AND SW RAB25E50 TSB39 SLP171 P0017 T02780250
KSPG 181246Z 00000KT 2 1/2SM -TSRA BR SCT024 SCT037 BKN050 27/24 A3004 RMK AO2 LTG DSNT N RAB25 TSB39 P0017 T02670244
KSPG 181240Z 00000KT 1/2SM +TSRA FG FEW017 BKN036 OVC075 26/24 A3004 RMK AO2 LTG DSNT N RAB25 TSB39 P0017 T02610244
KSPG 181235Z 32003KT 3/4SM +RA FEW017 BKN029 BKN042 27/24 A3004 RMK AO2 LTG DSNT N RAB25 P0014 T02670239
KSPG 181232Z 31005KT 1 1/2SM +RA FEW017 SCT027 BKN034 27/24 A3004 RMK AO2 LTG DSNT N AND NW RAB25 P0006 T02670239
KSPG 181230Z 30008KT 3SM RA FEW017 BKN027 BKN041 27/24 A3004 RMK AO2 LTG DSNT N AND NW RAB25 P0003 T02720239
KSPG 181217Z VRB05KT 10SM VCTS FEW027 28/24 A3003 RMK AO2 LTG DSNT N AND NW T02830244
KSPG 181153Z 00000KT 10SM FEW028 FEW120 28/24 A3002 RMK AO2 SLP166 60019 70019 T02830239 10294 20272 53007
KSPG 181053Z 00000KT 10SM FEW080 27/23 A3001 RMK AO2 RAE32 TSB19E46 SLP162 P0019 T02720228
KSPG 181035Z AUTO 00000KT 10SM TS FEW022 SCT028 BKN047 27/23 A3001 RMK AO2 RAE32 TSB19 P0019 T02720228
KSPG 181022Z AUTO 00000KT 3SM -TSRA BR BKN026 BKN039 OVC090 27/25 A3001 RMK AO2 TSB19 P0019 T02720250
KSPG 181019Z AUTO VRB03KT 1 1/2SM +TSRA BR BKN026 BKN039 OVC090 27/25 A3001 RMK AO2 TSB19 P0019 T02720250
KSPG 181012Z AUTO 29007KT 1 3/4SM RA SCT024 BKN065 OVC090 28/24 A3001 RMK AO2 P0015 T02780244
KSPG 180953Z AUTO 18006KT 8SM -RA FEW065 BKN095 28/23 A3000 RMK AO2 RAB43 SLP159 P0000 T02780233
KSPG 180853Z AUTO 23003KT 10SM FEW025 29/24 A3000 RMK AO2 SLP158 T02890244 56012
KSPG 180753Z AUTO 24004KT 10SM CLR 29/24 A3001 RMK AO2 SLP161 T02890244
KSPG 180653Z AUTO 25004KT 10SM CLR 29/24 A3002 RMK AO2 SLP165 T02890244
KSPG 180553Z AUTO 25004KT 10SM CLR 29/24 A3003 RMK AO2 SLP170 T02940244 10306 20294 58004
KSPG 180453Z AUTO 24004KT 10SM CLR 29/24 A3004 RMK AO2 SLP172 T02940244 403220283
KSPG 180353Z AUTO 25003KT 10SM CLR 29/24 A3005 RMK AO2 SLP175 T02940244
KSPG 180253Z AUTO 27004KT 10SM CLR 30/24 A3005 RMK AO2 SLP174 T03000244 53004
KSPG 180153Z AUTO 26005KT 10SM CLR 30/22 A3004 RMK AO2 SLP171 T03000217
KSPG 180053Z AUTO 26007KT 10SM CLR 31/24 A3004 RMK AO2 SLP171 T03060239
KSPG 172353Z 26009KT 10SM CLR 31/24 A3003 RMK AO2 SLP170 T03060239 10317 20306 55000
KSPG 172253Z 27009KT 10SM CLR 31/24 A3002 RMK AO2 SLP166 T03060239
KSPG 172153Z 27011KT 10SM SCT029 31/24 A3003 RMK AO2 LTG DSNT SW SLP170 T03060244
KSPG 172053Z 27012KT 10SM FEW032 31/24 A3004 RMK AO2 SLP170 T03110239 57009
KSPG 171953Z 27010KT 10SM FEW035 31/24 A3004 RMK AO2 LTG DSNT N SLP173 T03110239
KSPG 171853Z 26012G20KT 10SM FEW036 32/24 A3005 RMK AO2 LTG DSNT NE SLP176 T03170239
KSPG 171753Z 27013KT 10SM BKN035 BKN050 32/24 A3006 RMK AO2 LTG DSNT E SLP179 T03170239 10322 20294 58006
KSPG 171653Z 24012KT 10SM FEW029 SCT035 BKN044 32/24 A3007 RMK AO2 SLP183 T03170239
KSPG 171553Z 25008KT 10SM FEW030 SCT041 31/24 A3009 RMK AO2 SLP187 T03110239